Shelton, Connecticut
Current Conditions -  °F | °C
As of 6:17 AM on Friday 24 Oct 2014 (Local Time) from KBDR Reporting Station
Light Rain Light Rain  
Wind Chill: 11°   Ceiling: 4800
Heat Index: 11°   Visibility: 10mi
Dew Point:   Wind: 10mph
Humidity: 77%   Direction: 320°NW
Pressure: 29.77"   Gusts: NA
Location:  41.32°N, 73.11°W
Report Text: KBDR 241017Z 32009KT 10SM -RA OVC048 11/07 A2977 RMK AO2 RAB04 P0000 T01060067
Loading
Personal Weather Stations






























Interactive Weather Map
Tropical Storm Tracking
New forecast layout! Learn more

10-Day Weather Forecast

Advertisements
Track Severe Weather on mobile